RO-0023 weather

Aerodrom Drobeta
Drobeta, Romania

Public forecast

Using degrees Celsius for public forecast. Weather courtesy of forecast.io.

METAR (pilot weather report)

Closest report is Craiova Airport, 47.4 nm (87.9 km) ESE. Retrieved 2019/08/21 04:30 UTC (27 minutes ago):

LRCV 210430Z AUTO 02005KT 9999 FEW075 19/14 Q1020

TAF (pilot weather forecast)

Forecast is more than 12 hours old.

Closest forecast is Craiova Airport, 47.4 nm (87.9 km) ESE. Retrieved 2014/07/19 18:48 UTC (5 years ago):

TAF LRCV 191800Z 1918/2024 CNL